sensor_id;sensor_type;location;lat;lon;timestamp;P1;durP1;ratioP1;P2;durP2;ratioP2
59189;SDS011;50749;51.636;4.948;2022-09-09T00:04:25;1.58;;;0.50;;
59189;SDS011;50749;51.636;4.948;2022-09-09T00:09:24;1.35;;;0.40;;
59189;SDS011;50749;51.636;4.948;2022-09-09T00:12:12;1.77;;;0.55;;
59189;SDS011;50749;51.636;4.948;2022-09-09T00:14:51;1.15;;;0.40;;
59189;SDS011;50749;51.636;4.948;2022-09-09T00:28:36;1.38;;;0.52;;
59189;SDS011;50749;51.636;4.948;2022-09-09T00:31:11;1.80;;;0.40;;
59189;SDS011;50749;51.636;4.948;2022-09-09T00:33:39;1.90;;;0.40;;
59189;SDS011;50749;51.636;4.948;2022-09-09T00:36:09;2.83;;;0.45;;
59189;SDS011;50749;51.636;4.948;2022-09-09T00:38:47;1.25;;;0.47;;
59189;SDS011;50749;51.636;4.948;2022-09-09T01:05:40;0.50;;;0.28;;
59189;SDS011;50749;51.636;4.948;2022-09-09T01:08:36;1.38;;;0.40;;
59189;SDS011;50749;51.636;4.948;2022-09-09T01:11:27;0.80;;;0.40;;
59189;SDS011;50749;51.636;4.948;2022-09-09T01:14:49;1.08;;;0.30;;
59189;SDS011;50749;51.636;4.948;2022-09-09T01:27:52;2.35;;;0.50;;
59189;SDS011;50749;51.636;4.948;2022-09-09T01:30:22;1.65;;;0.45;;
59189;SDS011;50749;51.636;4.948;2022-09-09T01:32:50;0.90;;;0.40;;
59189;SDS011;50749;51.636;4.948;2022-09-09T01:37:56;0.93;;;0.30;;
59189;SDS011;50749;51.636;4.948;2022-09-09T01:40:23;0.75;;;0.45;;
59189;SDS011;50749;51.636;4.948;2022-09-09T01:42:50;1.25;;;0.57;;
59189;SDS011;50749;51.636;4.948;2022-09-09T01:45:17;1.70;;;0.43;;
59189;SDS011;50749;51.636;4.948;2022-09-09T01:47:43;0.95;;;0.30;;
59189;SDS011;50749;51.636;4.948;2022-09-09T01:50:10;1.35;;;0.40;;
59189;SDS011;50749;51.636;4.948;2022-09-09T01:52:39;0.85;;;0.40;;
59189;SDS011;50749;51.636;4.948;2022-09-09T01:55:07;2.25;;;0.52;;
59189;SDS011;50749;51.636;4.948;2022-09-09T01:57:39;1.55;;;0.35;;
59189;SDS011;50749;51.636;4.948;2022-09-09T02:00:13;0.95;;;0.38;;
59189;SDS011;50749;51.636;4.948;2022-09-09T02:08:08;0.57;;;0.32;;
59189;SDS011;50749;51.636;4.948;2022-09-09T02:10:45;0.80;;;0.40;;
59189;SDS011;50749;51.636;4.948;2022-09-09T02:13:23;0.80;;;0.30;;
59189;SDS011;50749;51.636;4.948;2022-09-09T02:18:43;0.65;;;0.40;;
59189;SDS011;50749;51.636;4.948;2022-09-09T02:21:13;1.40;;;0.68;;
59189;SDS011;50749;51.636;4.948;2022-09-09T02:23:40;1.23;;;0.40;;
59189;SDS011;50749;51.636;4.948;2022-09-09T02:26:11;0.70;;;0.40;;
59189;SDS011;50749;51.636;4.948;2022-09-09T02:28:40;0.82;;;0.30;;
59189;SDS011;50749;51.636;4.948;2022-09-09T02:31:07;1.25;;;0.43;;
59189;SDS011;50749;51.636;4.948;2022-09-09T02:33:35;1.20;;;0.50;;
59189;SDS011;50749;51.636;4.948;2022-09-09T02:36:05;1.30;;;0.40;;
59189;SDS011;50749;51.636;4.948;2022-09-09T02:38:36;1.38;;;0.40;;
59189;SDS011;50749;51.636;4.948;2022-09-09T02:41:06;0.80;;;0.40;;
59189;SDS011;50749;51.636;4.948;2022-09-09T02:43:32;0.43;;;0.20;;
59189;SDS011;50749;51.636;4.948;2022-09-09T02:46:13;0.60;;;0.40;;
59189;SDS011;50749;51.636;4.948;2022-09-09T02:48:51;0.55;;;0.40;;
59189;SDS011;50749;51.636;4.948;2022-09-09T02:51:42;0.73;;;0.35;;
59189;SDS011;50749;51.636;4.948;2022-09-09T02:54:32;0.35;;;0.30;;
59189;SDS011;50749;51.636;4.948;2022-09-09T02:59:36;0.60;;;0.30;;
59189;SDS011;50749;51.636;4.948;2022-09-09T03:02:02;0.38;;;0.25;;
59189;SDS011;50749;51.636;4.948;2022-09-09T03:04:28;1.60;;;0.30;;
59189;SDS011;50749;51.636;4.948;2022-09-09T03:06:55;1.30;;;0.35;;
59189;SDS011;50749;51.636;4.948;2022-09-09T03:09:21;2.30;;;0.40;;
59189;SDS011;50749;51.636;4.948;2022-09-09T03:11:46;0.38;;;0.30;;
59189;SDS011;50749;51.636;4.948;2022-09-09T03:14:12;2.30;;;0.30;;
59189;SDS011;50749;51.636;4.948;2022-09-09T03:16:38;1.08;;;0.40;;
59189;SDS011;50749;51.636;4.948;2022-09-09T03:19:04;1.25;;;0.45;;
59189;SDS011;50749;51.636;4.948;2022-09-09T03:21:30;0.40;;;0.30;;
59189;SDS011;50749;51.636;4.948;2022-09-09T03:23:55;0.93;;;0.57;;
59189;SDS011;50749;51.636;4.948;2022-09-09T03:26:22;0.57;;;0.38;;
59189;SDS011;50749;51.636;4.948;2022-09-09T03:28:48;0.32;;;0.25;;
59189;SDS011;50749;51.636;4.948;2022-09-09T03:31:15;0.40;;;0.20;;
59189;SDS011;50749;51.636;4.948;2022-09-09T03:33:40;0.73;;;0.35;;
59189;SDS011;50749;51.636;4.948;2022-09-09T03:36:06;1.02;;;0.32;;
59189;SDS011;50749;51.636;4.948;2022-09-09T03:38:33;0.88;;;0.47;;
59189;SDS011;50749;51.636;4.948;2022-09-09T03:40:59;0.63;;;0.30;;
59189;SDS011;50749;51.636;4.948;2022-09-09T03:43:27;1.50;;;0.40;;
59189;SDS011;50749;51.636;4.948;2022-09-09T03:45:53;0.88;;;0.40;;
59189;SDS011;50749;51.636;4.948;2022-09-09T03:48:22;1.10;;;0.40;;
59189;SDS011;50749;51.636;4.948;2022-09-09T03:50:49;1.10;;;0.30;;
59189;SDS011;50749;51.636;4.948;2022-09-09T03:53:17;0.85;;;0.38;;
59189;SDS011;50749;51.636;4.948;2022-09-09T03:55:48;0.22;;;0.22;;
59189;SDS011;50749;51.636;4.948;2022-09-09T03:58:16;1.23;;;0.50;;
59189;SDS011;50749;51.636;4.948;2022-09-09T04:00:52;1.17;;;0.50;;
59189;SDS011;50749;51.636;4.948;2022-09-09T04:03:19;0.80;;;0.35;;
59189;SDS011;50749;51.636;4.948;2022-09-09T04:05:45;0.93;;;0.50;;
59189;SDS011;50749;51.636;4.948;2022-09-09T04:08:14;0.73;;;0.40;;
59189;SDS011;50749;51.636;4.948;2022-09-09T04:10:40;0.82;;;0.30;;
59189;SDS011;50749;51.636;4.948;2022-09-09T04:13:07;1.08;;;0.38;;
59189;SDS011;50749;51.636;4.948;2022-09-09T04:15:33;0.65;;;0.30;;
59189;SDS011;50749;51.636;4.948;2022-09-09T04:18:01;0.55;;;0.22;;
59189;SDS011;50749;51.636;4.948;2022-09-09T04:20:26;0.95;;;0.40;;
59189;SDS011;50749;51.636;4.948;2022-09-09T04:22:52;2.72;;;0.40;;
59189;SDS011;50749;51.636;4.948;2022-09-09T04:25:18;1.85;;;0.40;;
59189;SDS011;50749;51.636;4.948;2022-09-09T04:27:44;0.77;;;0.35;;
59189;SDS011;50749;51.636;4.948;2022-09-09T04:30:10;0.80;;;0.35;;
59189;SDS011;50749;51.636;4.948;2022-09-09T04:32:37;2.65;;;1.15;;
59189;SDS011;50749;51.636;4.948;2022-09-09T04:35:03;2.33;;;0.60;;
59189;SDS011;50749;51.636;4.948;2022-09-09T04:37:29;1.40;;;0.50;;
59189;SDS011;50749;51.636;4.948;2022-09-09T04:39:55;2.85;;;0.52;;
59189;SDS011;50749;51.636;4.948;2022-09-09T04:42:21;4.10;;;0.50;;
59189;SDS011;50749;51.636;4.948;2022-09-09T04:44:46;2.15;;;0.80;;
59189;SDS011;50749;51.636;4.948;2022-09-09T04:47:12;3.38;;;0.60;;
59189;SDS011;50749;51.636;4.948;2022-09-09T04:49:40;4.07;;;1.00;;
59189;SDS011;50749;51.636;4.948;2022-09-09T04:52:06;4.55;;;1.20;;
59189;SDS011;50749;51.636;4.948;2022-09-09T04:54:32;2.75;;;0.82;;
59189;SDS011;50749;51.636;4.948;2022-09-09T04:56:57;4.35;;;0.80;;
59189;SDS011;50749;51.636;4.948;2022-09-09T04:59:23;5.70;;;1.02;;
59189;SDS011;50749;51.636;4.948;2022-09-09T05:01:50;3.58;;;0.85;;
59189;SDS011;50749;51.636;4.948;2022-09-09T05:04:16;4.68;;;1.10;;
59189;SDS011;50749;51.636;4.948;2022-09-09T05:06:41;1.80;;;0.75;;
59189;SDS011;50749;51.636;4.948;2022-09-09T05:09:08;5.93;;;0.88;;
59189;SDS011;50749;51.636;4.948;2022-09-09T05:11:34;1.38;;;0.50;;
59189;SDS011;50749;51.636;4.948;2022-09-09T05:14:03;6.05;;;0.95;;
59189;SDS011;50749;51.636;4.948;2022-09-09T05:16:30;2.55;;;1.02;;
59189;SDS011;50749;51.636;4.948;2022-09-09T05:18:56;11.32;;;1.30;;
59189;SDS011;50749;51.636;4.948;2022-09-09T05:21:22;4.05;;;0.90;;
59189;SDS011;50749;51.636;4.948;2022-09-09T05:23:50;4.68;;;0.90;;
59189;SDS011;50749;51.636;4.948;2022-09-09T05:26:17;7.53;;;0.90;;
59189;SDS011;50749;51.636;4.948;2022-09-09T05:28:44;3.00;;;0.98;;
59189;SDS011;50749;51.636;4.948;2022-09-09T05:31:11;4.50;;;0.80;;
59189;SDS011;50749;51.636;4.948;2022-09-09T05:33:38;3.42;;;0.80;;
59189;SDS011;50749;51.636;4.948;2022-09-09T05:36:09;2.45;;;0.88;;
59189;SDS011;50749;51.636;4.948;2022-09-09T05:38:38;11.95;;;1.35;;
59189;SDS011;50749;51.636;4.948;2022-09-09T05:41:06;4.10;;;1.00;;
59189;SDS011;50749;51.636;4.948;2022-09-09T05:43:32;7.45;;;1.10;;
59189;SDS011;50749;51.636;4.948;2022-09-09T05:48:38;4.07;;;0.80;;
59189;SDS011;50749;51.636;4.948;2022-09-09T05:51:06;5.65;;;0.90;;
59189;SDS011;50749;51.636;4.948;2022-09-09T05:53:43;4.80;;;0.98;;
59189;SDS011;50749;51.636;4.948;2022-09-09T05:56:11;5.45;;;1.30;;
59189;SDS011;50749;51.636;4.948;2022-09-09T05:58:42;3.25;;;0.80;;
59189;SDS011;50749;51.636;4.948;2022-09-09T06:01:09;3.97;;;1.00;;
59189;SDS011;50749;51.636;4.948;2022-09-09T06:03:38;6.03;;;2.00;;
59189;SDS011;50749;51.636;4.948;2022-09-09T06:06:06;2.20;;;0.68;;
59189;SDS011;50749;51.636;4.948;2022-09-09T06:08:40;3.58;;;0.80;;
59189;SDS011;50749;51.636;4.948;2022-09-09T06:11:10;5.68;;;0.75;;
59189;SDS011;50749;51.636;4.948;2022-09-09T06:13:37;1.83;;;0.68;;
59189;SDS011;50749;51.636;4.948;2022-09-09T06:16:05;4.72;;;0.60;;
59189;SDS011;50749;51.636;4.948;2022-09-09T06:18:33;4.07;;;0.80;;
59189;SDS011;50749;51.636;4.948;2022-09-09T06:21:03;3.63;;;0.70;;
59189;SDS011;50749;51.636;4.948;2022-09-09T06:23:32;3.33;;;1.23;;
59189;SDS011;50749;51.636;4.948;2022-09-09T06:26:04;3.08;;;0.80;;
59189;SDS011;50749;51.636;4.948;2022-09-09T06:28:31;3.22;;;0.70;;
59189;SDS011;50749;51.636;4.948;2022-09-09T06:31:01;4.32;;;0.90;;
59189;SDS011;50749;51.636;4.948;2022-09-09T06:33:33;6.05;;;1.35;;
59189;SDS011;50749;51.636;4.948;2022-09-09T06:36:00;5.75;;;0.82;;
59189;SDS011;50749;51.636;4.948;2022-09-09T06:38:29;7.45;;;1.23;;
59189;SDS011;50749;51.636;4.948;2022-09-09T06:40:55;6.43;;;1.38;;
59189;SDS011;50749;51.636;4.948;2022-09-09T06:43:24;3.42;;;0.75;;
59189;SDS011;50749;51.636;4.948;2022-09-09T06:45:56;5.43;;;1.10;;
59189;SDS011;50749;51.636;4.948;2022-09-09T06:48:22;6.65;;;1.20;;
59189;SDS011;50749;51.636;4.948;2022-09-09T06:50:49;3.92;;;0.90;;
59189;SDS011;50749;51.636;4.948;2022-09-09T06:53:16;6.38;;;1.23;;
59189;SDS011;50749;51.636;4.948;2022-09-09T06:55:44;4.53;;;1.10;;
59189;SDS011;50749;51.636;4.948;2022-09-09T06:58:10;8.98;;;1.88;;
59189;SDS011;50749;51.636;4.948;2022-09-09T07:00:36;3.47;;;1.00;;
59189;SDS011;50749;51.636;4.948;2022-09-09T07:03:05;5.55;;;1.10;;
59189;SDS011;50749;51.636;4.948;2022-09-09T07:05:31;6.32;;;1.13;;
59189;SDS011;50749;51.636;4.948;2022-09-09T07:07:57;3.88;;;1.95;;
59189;SDS011;50749;51.636;4.948;2022-09-09T07:10:23;4.68;;;1.05;;
59189;SDS011;50749;51.636;4.948;2022-09-09T07:12:50;7.28;;;1.02;;
59189;SDS011;50749;51.636;4.948;2022-09-09T07:15:17;6.47;;;1.30;;
59189;SDS011;50749;51.636;4.948;2022-09-09T07:17:44;6.82;;;1.10;;
59189;SDS011;50749;51.636;4.948;2022-09-09T07:20:11;4.18;;;1.02;;
59189;SDS011;50749;51.636;4.948;2022-09-09T07:22:37;6.93;;;1.48;;
59189;SDS011;50749;51.636;4.948;2022-09-09T07:25:03;5.45;;;1.42;;
59189;SDS011;50749;51.636;4.948;2022-09-09T07:27:29;4.70;;;0.80;;
59189;SDS011;50749;51.636;4.948;2022-09-09T07:29:55;4.30;;;1.00;;
59189;SDS011;50749;51.636;4.948;2022-09-09T07:32:22;2.53;;;0.77;;
59189;SDS011;50749;51.636;4.948;2022-09-09T07:34:48;5.45;;;1.60;;
59189;SDS011;50749;51.636;4.948;2022-09-09T07:37:15;5.60;;;0.93;;
59189;SDS011;50749;51.636;4.948;2022-09-09T07:39:42;6.18;;;1.17;;
59189;SDS011;50749;51.636;4.948;2022-09-09T07:42:07;3.50;;;1.10;;
59189;SDS011;50749;51.636;4.948;2022-09-09T07:44:36;6.22;;;1.00;;
59189;SDS011;50749;51.636;4.948;2022-09-09T07:47:05;5.18;;;1.20;;
59189;SDS011;50749;51.636;4.948;2022-09-09T07:49:31;2.92;;;0.93;;
59189;SDS011;50749;51.636;4.948;2022-09-09T07:51:57;4.90;;;1.08;;
59189;SDS011;50749;51.636;4.948;2022-09-09T07:54:24;4.93;;;1.05;;
59189;SDS011;50749;51.636;4.948;2022-09-09T07:56:50;4.68;;;0.98;;
59189;SDS011;50749;51.636;4.948;2022-09-09T07:59:16;4.65;;;1.27;;
59189;SDS011;50749;51.636;4.948;2022-09-09T08:01:43;3.25;;;1.00;;
59189;SDS011;50749;51.636;4.948;2022-09-09T08:04:12;4.45;;;1.10;;
59189;SDS011;50749;51.636;4.948;2022-09-09T08:06:44;6.65;;;1.20;;
59189;SDS011;50749;51.636;4.948;2022-09-09T08:09:12;3.72;;;0.90;;
59189;SDS011;50749;51.636;4.948;2022-09-09T08:11:39;4.07;;;1.27;;
59189;SDS011;50749;51.636;4.948;2022-09-09T08:14:07;5.97;;;1.20;;
59189;SDS011;50749;51.636;4.948;2022-09-09T08:16:34;5.80;;;1.35;;
59189;SDS011;50749;51.636;4.948;2022-09-09T08:19:02;9.88;;;1.10;;
59189;SDS011;50749;51.636;4.948;2022-09-09T08:21:29;7.00;;;1.15;;
59189;SDS011;50749;51.636;4.948;2022-09-09T08:23:57;3.80;;;0.90;;
59189;SDS011;50749;51.636;4.948;2022-09-09T08:26:28;4.70;;;1.35;;
59189;SDS011;50749;51.636;4.948;2022-09-09T08:28:57;4.88;;;0.95;;
59189;SDS011;50749;51.636;4.948;2022-09-09T08:31:28;3.90;;;1.10;;
59189;SDS011;50749;51.636;4.948;2022-09-09T08:33:57;4.05;;;0.95;;
59189;SDS011;50749;51.636;4.948;2022-09-09T08:36:25;6.38;;;0.90;;
59189;SDS011;50749;51.636;4.948;2022-09-09T08:38:54;6.20;;;1.02;;
59189;SDS011;50749;51.636;4.948;2022-09-09T08:44:16;8.45;;;1.13;;
59189;SDS011;50749;51.636;4.948;2022-09-09T08:49:37;4.95;;;1.00;;
59189;SDS011;50749;51.636;4.948;2022-09-09T08:52:29;4.57;;;1.00;;
59189;SDS011;50749;51.636;4.948;2022-09-09T08:54:58;3.78;;;1.20;;
59189;SDS011;50749;51.636;4.948;2022-09-09T08:57:48;5.47;;;0.90;;
59189;SDS011;50749;51.636;4.948;2022-09-09T09:00:17;4.68;;;0.70;;
59189;SDS011;50749;51.636;4.948;2022-09-09T09:10:47;2.00;;;0.80;;
59189;SDS011;50749;51.636;4.948;2022-09-09T09:13:18;4.40;;;1.27;;
59189;SDS011;50749;51.636;4.948;2022-09-09T09:15:56;7.40;;;0.95;;
59189;SDS011;50749;51.636;4.948;2022-09-09T09:18:25;5.53;;;0.98;;
59189;SDS011;50749;51.636;4.948;2022-09-09T09:21:02;7.38;;;1.17;;
59189;SDS011;50749;51.636;4.948;2022-09-09T09:23:43;5.45;;;1.08;;
59189;SDS011;50749;51.636;4.948;2022-09-09T09:26:14;4.82;;;1.10;;
59189;SDS011;50749;51.636;4.948;2022-09-09T09:28:40;8.02;;;1.45;;
59189;SDS011;50749;51.636;4.948;2022-09-09T09:31:07;6.38;;;1.13;;
59189;SDS011;50749;51.636;4.948;2022-09-09T09:33:49;6.80;;;1.90;;
59189;SDS011;50749;51.636;4.948;2022-09-09T09:36:18;4.65;;;1.23;;
59189;SDS011;50749;51.636;4.948;2022-09-09T09:38:55;9.85;;;1.08;;
59189;SDS011;50749;51.636;4.948;2022-09-09T09:41:38;5.43;;;0.90;;
59189;SDS011;50749;51.636;4.948;2022-09-09T09:44:23;3.97;;;1.10;;
59189;SDS011;50749;51.636;4.948;2022-09-09T09:47:05;3.60;;;1.02;;
59189;SDS011;50749;51.636;4.948;2022-09-09T09:49:31;2.50;;;0.93;;
59189;SDS011;50749;51.636;4.948;2022-09-09T09:52:01;8.00;;;1.35;;
59189;SDS011;50749;51.636;4.948;2022-09-09T09:54:29;5.90;;;1.23;;
59189;SDS011;50749;51.636;4.948;2022-09-09T09:59:36;3.15;;;0.93;;
59189;SDS011;50749;51.636;4.948;2022-09-09T10:04:46;6.72;;;1.10;;
59189;SDS011;50749;51.636;4.948;2022-09-09T10:07:15;3.92;;;1.20;;
59189;SDS011;50749;51.636;4.948;2022-09-09T10:09:43;4.13;;;1.13;;
59189;SDS011;50749;51.636;4.948;2022-09-09T10:17:58;3.20;;;0.90;;
59189;SDS011;50749;51.636;4.948;2022-09-09T10:24:05;5.88;;;1.35;;
59189;SDS011;50749;51.636;4.948;2022-09-09T10:26:40;22.90;;;2.75;;
59189;SDS011;50749;51.636;4.948;2022-09-09T10:32:27;3.47;;;1.30;;
59189;SDS011;50749;51.636;4.948;2022-09-09T10:35:04;9.80;;;1.35;;
59189;SDS011;50749;51.636;4.948;2022-09-09T10:40:23;3.47;;;0.90;;
59189;SDS011;50749;51.636;4.948;2022-09-09T10:45:57;4.75;;;1.00;;
59189;SDS011;50749;51.636;4.948;2022-09-09T10:56:56;8.63;;;1.17;;
59189;SDS011;50749;51.636;4.948;2022-09-09T10:59:31;5.03;;;1.27;;
59189;SDS011;50749;51.636;4.948;2022-09-09T11:04:56;3.28;;;1.10;;
59189;SDS011;50749;51.636;4.948;2022-09-09T11:07:39;1.90;;;0.82;;
59189;SDS011;50749;51.636;4.948;2022-09-09T11:10:25;6.70;;;1.20;;
59189;SDS011;50749;51.636;4.948;2022-09-09T11:13:11;4.60;;;1.05;;
59189;SDS011;50749;51.636;4.948;2022-09-09T11:15:47;4.90;;;1.08;;
59189;SDS011;50749;51.636;4.948;2022-09-09T11:18:20;3.90;;;0.90;;
59189;SDS011;50749;51.636;4.948;2022-09-09T11:20:53;4.68;;;1.00;;
59189;SDS011;50749;51.636;4.948;2022-09-09T11:23:36;4.68;;;0.80;;
59189;SDS011;50749;51.636;4.948;2022-09-09T11:26:06;6.15;;;1.25;;
59189;SDS011;50749;51.636;4.948;2022-09-09T11:28:55;4.75;;;1.00;;
59189;SDS011;50749;51.636;4.948;2022-09-09T11:31:46;4.45;;;0.77;;
59189;SDS011;50749;51.636;4.948;2022-09-09T11:39:55;9.75;;;0.98;;
59189;SDS011;50749;51.636;4.948;2022-09-09T11:42:27;3.47;;;1.00;;
59189;SDS011;50749;51.636;4.948;2022-09-09T11:44:53;3.92;;;1.10;;
59189;SDS011;50749;51.636;4.948;2022-09-09T11:52:41;3.78;;;1.05;;
59189;SDS011;50749;51.636;4.948;2022-09-09T11:55:20;1.70;;;0.80;;
59189;SDS011;50749;51.636;4.948;2022-09-09T11:58:02;4.47;;;1.00;;
59189;SDS011;50749;51.636;4.948;2022-09-09T12:00:35;3.22;;;0.90;;
59189;SDS011;50749;51.636;4.948;2022-09-09T12:03:02;7.00;;;1.63;;
59189;SDS011;50749;51.636;4.948;2022-09-09T12:05:48;2.70;;;1.00;;
59189;SDS011;50749;51.636;4.948;2022-09-09T12:08:16;4.95;;;1.25;;
59189;SDS011;50749;51.636;4.948;2022-09-09T12:10:53;4.60;;;1.00;;
59189;SDS011;50749;51.636;4.948;2022-09-09T12:13:25;3.75;;;0.90;;
59189;SDS011;50749;51.636;4.948;2022-09-09T12:15:53;3.20;;;1.27;;
59189;SDS011;50749;51.636;4.948;2022-09-09T12:18:24;2.25;;;0.70;;
59189;SDS011;50749;51.636;4.948;2022-09-09T12:20:59;5.18;;;1.40;;
59189;SDS011;50749;51.636;4.948;2022-09-09T12:23:35;7.10;;;0.98;;
59189;SDS011;50749;51.636;4.948;2022-09-09T12:34:39;5.07;;;1.20;;
59189;SDS011;50749;51.636;4.948;2022-09-09T12:40:00;5.40;;;1.00;;
59189;SDS011;50749;51.636;4.948;2022-09-09T12:42:29;12.35;;;1.13;;
59189;SDS011;50749;51.636;4.948;2022-09-09T12:45:02;6.30;;;1.23;;
59189;SDS011;50749;51.636;4.948;2022-09-09T12:47:49;2.30;;;1.00;;
59189;SDS011;50749;51.636;4.948;2022-09-09T12:50:19;3.75;;;1.15;;
59189;SDS011;50749;51.636;4.948;2022-09-09T12:52:48;4.72;;;0.85;;
59189;SDS011;50749;51.636;4.948;2022-09-09T12:55:18;1.95;;;1.02;;
59189;SDS011;50749;51.636;4.948;2022-09-09T12:57:46;4.82;;;1.35;;
59189;SDS011;50749;51.636;4.948;2022-09-09T13:00:18;10.77;;;0.95;;
59189;SDS011;50749;51.636;4.948;2022-09-09T13:02:54;5.53;;;1.02;;
59189;SDS011;50749;51.636;4.948;2022-09-09T13:05:26;5.00;;;0.90;;
59189;SDS011;50749;51.636;4.948;2022-09-09T13:08:06;3.72;;;0.85;;
59189;SDS011;50749;51.636;4.948;2022-09-09T13:10:38;3.35;;;0.60;;
59189;SDS011;50749;51.636;4.948;2022-09-09T13:13:20;2.88;;;0.60;;
59189;SDS011;50749;51.636;4.948;2022-09-09T13:15:49;3.30;;;1.08;;
59189;SDS011;50749;51.636;4.948;2022-09-09T13:18:18;4.07;;;1.13;;
59189;SDS011;50749;51.636;4.948;2022-09-09T13:20:48;2.22;;;0.77;;
59189;SDS011;50749;51.636;4.948;2022-09-09T13:23:15;3.33;;;0.73;;
59189;SDS011;50749;51.636;4.948;2022-09-09T13:25:55;2.20;;;0.60;;
59189;SDS011;50749;51.636;4.948;2022-09-09T13:28:23;1.45;;;0.68;;
59189;SDS011;50749;51.636;4.948;2022-09-09T13:30:57;4.90;;;0.80;;
59189;SDS011;50749;51.636;4.948;2022-09-09T13:33:37;6.28;;;0.88;;
59189;SDS011;50749;51.636;4.948;2022-09-09T13:36:05;10.43;;;1.15;;
59189;SDS011;50749;51.636;4.948;2022-09-09T13:38:36;6.20;;;0.98;;
59189;SDS011;50749;51.636;4.948;2022-09-09T13:41:21;6.47;;;0.68;;
59189;SDS011;50749;51.636;4.948;2022-09-09T13:43:49;3.58;;;0.88;;
59189;SDS011;50749;51.636;4.948;2022-09-09T13:51:49;2.80;;;0.80;;
59189;SDS011;50749;51.636;4.948;2022-09-09T13:54:18;3.58;;;0.70;;
59189;SDS011;50749;51.636;4.948;2022-09-09T13:56:45;3.10;;;0.80;;
59189;SDS011;50749;51.636;4.948;2022-09-09T13:59:12;3.95;;;0.93;;
59189;SDS011;50749;51.636;4.948;2022-09-09T14:01:45;5.00;;;1.00;;
59189;SDS011;50749;51.636;4.948;2022-09-09T14:04:11;6.05;;;1.00;;
59189;SDS011;50749;51.636;4.948;2022-09-09T14:06:37;3.53;;;0.80;;
59189;SDS011;50749;51.636;4.948;2022-09-09T14:09:05;5.85;;;0.60;;
59189;SDS011;50749;51.636;4.948;2022-09-09T14:11:33;1.88;;;0.77;;
59189;SDS011;50749;51.636;4.948;2022-09-09T14:13:59;2.00;;;0.70;;
59189;SDS011;50749;51.636;4.948;2022-09-09T14:16:26;1.67;;;0.47;;
59189;SDS011;50749;51.636;4.948;2022-09-09T14:18:53;2.88;;;0.70;;
59189;SDS011;50749;51.636;4.948;2022-09-09T14:21:21;1.27;;;0.55;;
59189;SDS011;50749;51.636;4.948;2022-09-09T14:23:47;1.35;;;0.50;;
59189;SDS011;50749;51.636;4.948;2022-09-09T14:26:13;2.28;;;0.50;;
59189;SDS011;50749;51.636;4.948;2022-09-09T14:28:39;2.08;;;0.52;;
59189;SDS011;50749;51.636;4.948;2022-09-09T14:31:05;0.90;;;0.40;;
59189;SDS011;50749;51.636;4.948;2022-09-09T14:33:32;2.63;;;0.50;;
59189;SDS011;50749;51.636;4.948;2022-09-09T14:36:01;2.70;;;0.55;;
59189;SDS011;50749;51.636;4.948;2022-09-09T14:38:29;2.30;;;0.75;;
59189;SDS011;50749;51.636;4.948;2022-09-09T14:40:56;4.65;;;0.70;;
59189;SDS011;50749;51.636;4.948;2022-09-09T14:43:23;1.58;;;0.60;;
59189;SDS011;50749;51.636;4.948;2022-09-09T14:45:49;2.00;;;0.70;;
59189;SDS011;50749;51.636;4.948;2022-09-09T14:48:16;3.72;;;0.63;;
59189;SDS011;50749;51.636;4.948;2022-09-09T14:50:42;2.60;;;0.60;;
59189;SDS011;50749;51.636;4.948;2022-09-09T14:53:08;1.48;;;0.70;;
59189;SDS011;50749;51.636;4.948;2022-09-09T14:55:35;2.78;;;0.80;;
59189;SDS011;50749;51.636;4.948;2022-09-09T14:58:02;0.93;;;0.68;;
59189;SDS011;50749;51.636;4.948;2022-09-09T15:00:29;3.00;;;0.80;;
59189;SDS011;50749;51.636;4.948;2022-09-09T15:02:55;2.72;;;0.60;;
59189;SDS011;50749;51.636;4.948;2022-09-09T15:05:21;1.98;;;0.68;;
59189;SDS011;50749;51.636;4.948;2022-09-09T15:07:48;1.70;;;0.70;;
59189;SDS011;50749;51.636;4.948;2022-09-09T15:10:13;3.13;;;0.80;;
59189;SDS011;50749;51.636;4.948;2022-09-09T15:12:39;2.38;;;0.80;;
59189;SDS011;50749;51.636;4.948;2022-09-09T15:15:07;1.63;;;0.63;;
59189;SDS011;50749;51.636;4.948;2022-09-09T15:17:33;4.05;;;0.60;;
59189;SDS011;50749;51.636;4.948;2022-09-09T15:19:59;1.58;;;0.70;;
59189;SDS011;50749;51.636;4.948;2022-09-09T15:22:25;2.22;;;0.73;;
59189;SDS011;50749;51.636;4.948;2022-09-09T15:24:50;5.95;;;0.68;;
59189;SDS011;50749;51.636;4.948;2022-09-09T15:27:16;1.38;;;0.70;;
59189;SDS011;50749;51.636;4.948;2022-09-09T15:29:43;2.17;;;1.02;;
59189;SDS011;50749;51.636;4.948;2022-09-09T15:32:09;2.15;;;0.52;;
59189;SDS011;50749;51.636;4.948;2022-09-09T15:34:35;3.15;;;0.70;;
59189;SDS011;50749;51.636;4.948;2022-09-09T15:37:01;3.15;;;0.47;;
59189;SDS011;50749;51.636;4.948;2022-09-09T15:39:27;4.68;;;0.63;;
59189;SDS011;50749;51.636;4.948;2022-09-09T15:41:53;3.15;;;1.25;;
59189;SDS011;50749;51.636;4.948;2022-09-09T15:44:18;2.40;;;0.47;;
59189;SDS011;50749;51.636;4.948;2022-09-09T15:46:45;2.45;;;0.55;;
59189;SDS011;50749;51.636;4.948;2022-09-09T15:49:16;2.75;;;0.50;;
59189;SDS011;50749;51.636;4.948;2022-09-09T15:51:57;3.15;;;0.68;;
59189;SDS011;50749;51.636;4.948;2022-09-09T15:54:27;0.90;;;0.40;;
59189;SDS011;50749;51.636;4.948;2022-09-09T15:56:56;2.58;;;0.50;;
59189;SDS011;50749;51.636;4.948;2022-09-09T15:59:24;1.70;;;0.47;;
59189;SDS011;50749;51.636;4.948;2022-09-09T16:01:51;0.50;;;0.40;;
59189;SDS011;50749;51.636;4.948;2022-09-09T16:04:17;1.90;;;0.68;;
59189;SDS011;50749;51.636;4.948;2022-09-09T16:06:53;2.42;;;0.70;;
59189;SDS011;50749;51.636;4.948;2022-09-09T16:09:21;3.80;;;0.77;;
59189;SDS011;50749;51.636;4.948;2022-09-09T16:11:47;3.83;;;0.70;;
59189;SDS011;50749;51.636;4.948;2022-09-09T16:14:14;2.63;;;0.98;;
59189;SDS011;50749;51.636;4.948;2022-09-09T16:16:44;2.88;;;0.95;;
59189;SDS011;50749;51.636;4.948;2022-09-09T16:19:10;1.85;;;0.88;;
59189;SDS011;50749;51.636;4.948;2022-09-09T16:21:47;4.43;;;0.95;;
59189;SDS011;50749;51.636;4.948;2022-09-09T16:24:15;10.30;;;1.55;;
59189;SDS011;50749;51.636;4.948;2022-09-09T16:26:49;2.78;;;1.00;;
59189;SDS011;50749;51.636;4.948;2022-09-09T16:29:17;4.50;;;1.25;;
59189;SDS011;50749;51.636;4.948;2022-09-09T16:31:44;5.72;;;1.13;;
59189;SDS011;50749;51.636;4.948;2022-09-09T16:34:12;8.88;;;2.10;;
59189;SDS011;50749;51.636;4.948;2022-09-09T16:36:39;4.85;;;2.30;;
59189;SDS011;50749;51.636;4.948;2022-09-09T16:39:07;3.85;;;1.95;;
59189;SDS011;50749;51.636;4.948;2022-09-09T16:41:34;5.50;;;2.00;;
59189;SDS011;50749;51.636;4.948;2022-09-09T16:44:02;5.53;;;1.58;;
59189;SDS011;50749;51.636;4.948;2022-09-09T16:46:30;5.50;;;1.80;;
59189;SDS011;50749;51.636;4.948;2022-09-09T16:48:58;3.63;;;1.63;;
59189;SDS011;50749;51.636;4.948;2022-09-09T16:51:29;2.67;;;1.15;;
59189;SDS011;50749;51.636;4.948;2022-09-09T16:54:00;4.15;;;1.13;;
59189;SDS011;50749;51.636;4.948;2022-09-09T16:56:28;2.85;;;1.40;;
59189;SDS011;50749;51.636;4.948;2022-09-09T16:59:01;5.38;;;1.20;;
59189;SDS011;50749;51.636;4.948;2022-09-09T17:01:33;8.82;;;1.20;;
59189;SDS011;50749;51.636;4.948;2022-09-09T17:04:03;5.28;;;1.50;;
59189;SDS011;50749;51.636;4.948;2022-09-09T17:06:30;3.40;;;1.10;;
59189;SDS011;50749;51.636;4.948;2022-09-09T17:09:06;2.90;;;1.20;;
59189;SDS011;50749;51.636;4.948;2022-09-09T17:11:34;3.65;;;0.85;;
59189;SDS011;50749;51.636;4.948;2022-09-09T17:14:00;1.83;;;0.90;;
59189;SDS011;50749;51.636;4.948;2022-09-09T17:16:28;6.35;;;1.00;;
59189;SDS011;50749;51.636;4.948;2022-09-09T17:18:55;2.35;;;0.93;;
59189;SDS011;50749;51.636;4.948;2022-09-09T17:21:22;2.88;;;1.23;;
59189;SDS011;50749;51.636;4.948;2022-09-09T17:23:51;2.47;;;0.90;;
59189;SDS011;50749;51.636;4.948;2022-09-09T17:26:18;1.75;;;0.88;;
59189;SDS011;50749;51.636;4.948;2022-09-09T17:28:46;5.05;;;1.27;;